Time;durP1;ratioP1;P1;durP2;ratioP2;P2;SDS_P1;SDS_P2;PMS_P1;PMS_P2;Temp;Humidity;BMP_temperature;BMP_pressure;BME280_temperature;BME280_humidity;BME280_pressure;Samples;Min_cycle;Max_cycle;Signal;HPM_P1;HPM_P2
2024/01/09 00:02:19;;;;;;;;;;;-3.00;99.90;;;;;;4972045;28;19929;-65
2024/01/09 00:04:45;;;;;;;;;;;-3.00;99.90;;;;;;5010653;28;20799;-64
2024/01/09 00:07:11;;;;;;;;;;;-3.00;99.90;;;;;;4976337;28;19925;-65
2024/01/09 00:09:37;;;;;;;;;;;-3.00;99.90;;;;;;4999092;28;19928;-65
2024/01/09 00:12:03;;;;;;;;;;;-3.00;99.90;;;;;;5002726;28;20393;-66
2024/01/09 00:14:29;;;;;;;;;;;-3.10;99.90;;;;;;4972352;28;20283;-65
2024/01/09 00:16:55;;;;;;;;;;;-3.10;99.90;;;;;;5001544;28;20153;-67
2024/01/09 00:19:20;;;;;;;;;;;-3.10;99.90;;;;;;4970554;28;19925;-65
2024/01/09 00:21:47;;;;;;;;;;;-3.10;99.90;;;;;;5000648;28;21057;-65
2024/01/09 00:24:13;;;;;;;;;;;-3.10;99.90;;;;;;4985443;28;19929;-65
2024/01/09 00:26:42;;;;;;;;;;;-3.20;99.90;;;;;;5001219;28;20012;-66
2024/01/09 00:29:08;;;;;;;;;;;-3.20;99.90;;;;;;4985621;28;20881;-66
2024/01/09 00:31:34;;;;;;;;;;;-3.20;99.90;;;;;;5014615;28;19931;-67
2024/01/09 00:34:00;;;;;;;;;;;-3.20;99.90;;;;;;4978750;28;20355;-65
2024/01/09 00:36:26;;;;;;;;;;;-3.20;99.90;;;;;;5003569;28;19924;-66
2024/01/09 00:38:52;;;;;;;;;;;-3.30;99.90;;;;;;4984187;28;19940;-65
2024/01/09 00:41:18;;;;;;;;;;;-3.30;99.90;;;;;;5002540;28;19928;-66
2024/01/09 00:43:43;;;;;;;;;;;-3.30;99.90;;;;;;4981143;28;19932;-66
2024/01/09 00:46:09;;;;;;;;;;;-3.30;99.90;;;;;;5001119;28;19925;-69
2024/01/09 00:48:35;;;;;;;;;;;-3.40;99.90;;;;;;4967828;28;20396;-66
2024/01/09 00:51:01;;;;;;;;;;;-3.40;99.90;;;;;;4982117;28;19932;-65
2024/01/09 00:53:27;;;;;;;;;;;-3.40;99.90;;;;;;4949937;28;20218;-65
2024/01/09 00:55:53;;;;;;;;;;;-3.40;99.90;;;;;;4981429;28;20760;-66
2024/01/09 00:58:19;;;;;;;;;;;-3.50;99.90;;;;;;4971737;28;19936;-66
2024/01/09 01:00:46;;;;;;;;;;;-3.50;99.90;;;;;;4998107;28;19929;-66
2024/01/09 01:03:12;;;;;;;;;;;-3.50;99.90;;;;;;4970381;28;19925;-66
2024/01/09 01:05:38;;;;;;;;;;;-3.50;99.90;;;;;;4978588;28;19932;-66
2024/01/09 01:08:04;;;;;;;;;;;-3.50;99.90;;;;;;4979084;28;19935;-68
2024/01/09 01:10:30;;;;;;;;;;;-3.50;99.90;;;;;;5004837;28;19925;-66
2024/01/09 01:12:56;;;;;;;;;;;-3.60;99.90;;;;;;4957888;28;19931;-66
2024/01/09 01:15:23;;;;;;;;;;;-3.60;99.90;;;;;;5008041;28;20507;-66
2024/01/09 01:17:49;;;;;;;;;;;-3.60;99.90;;;;;;4973527;28;20487;-66
2024/01/09 01:20:15;;;;;;;;;;;-3.60;99.90;;;;;;5009048;28;20482;-66
2024/01/09 01:22:41;;;;;;;;;;;-3.60;99.90;;;;;;4966413;28;19929;-66
2024/01/09 01:25:08;;;;;;;;;;;-3.70;99.90;;;;;;4987221;28;20315;-66
2024/01/09 01:27:33;;;;;;;;;;;-3.70;99.90;;;;;;4969533;28;19932;-67
2024/01/09 01:29:59;;;;;;;;;;;-3.60;99.90;;;;;;5010981;28;19925;-66
2024/01/09 01:32:25;;;;;;;;;;;-3.70;99.90;;;;;;4970616;28;19984;-65
2024/01/09 01:34:51;;;;;;;;;;;-3.70;99.90;;;;;;5010165;28;20900;-66
2024/01/09 01:37:17;;;;;;;;;;;-3.70;99.90;;;;;;4968183;28;19924;-66
2024/01/09 01:39:43;;;;;;;;;;;-3.70;99.90;;;;;;4981898;28;19929;-66
2024/01/09 01:42:09;;;;;;;;;;;-3.70;99.90;;;;;;4984816;28;20784;-67
2024/01/09 01:44:35;;;;;;;;;;;-3.70;99.90;;;;;;4985009;28;20072;-66
2024/01/09 01:47:01;;;;;;;;;;;-3.60;99.90;;;;;;4994368;28;19933;-66
2024/01/09 01:49:27;;;;;;;;;;;-3.60;99.90;;;;;;4951021;28;19928;-66
2024/01/09 01:51:53;;;;;;;;;;;-3.70;99.90;;;;;;4996748;28;19940;-66
2024/01/09 01:54:20;;;;;;;;;;;-3.70;99.90;;;;;;4980249;28;19928;-66
2024/01/09 01:56:46;;;;;;;;;;;-3.70;99.90;;;;;;4999328;28;20318;-66
2024/01/09 01:59:14;;;;;;;;;;;-3.70;99.90;;;;;;4985696;28;19926;-67
2024/01/09 02:01:43;;;;;;;;;;;-3.70;99.90;;;;;;4997983;28;20495;-65
2024/01/09 02:04:09;;;;;;;;;;;-3.70;99.90;;;;;;4969388;28;20479;-67
2024/01/09 02:06:36;;;;;;;;;;;-3.70;99.90;;;;;;4997266;28;20537;-66
2024/01/09 02:09:02;;;;;;;;;;;-3.80;99.90;;;;;;4965595;28;19932;-66
2024/01/09 02:11:28;;;;;;;;;;;-3.80;99.90;;;;;;4999291;28;20229;-66
2024/01/09 02:13:54;;;;;;;;;;;-3.80;99.90;;;;;;4967735;28;20014;-66
2024/01/09 02:16:20;;;;;;;;;;;-3.80;99.90;;;;;;5014607;28;19928;-65
2024/01/09 02:18:46;;;;;;;;;;;-3.70;99.90;;;;;;4975220;28;21568;-66
2024/01/09 02:21:12;;;;;;;;;;;-3.70;99.90;;;;;;5000719;28;19928;-65
2024/01/09 02:23:38;;;;;;;;;;;-3.70;99.90;;;;;;4956547;28;19936;-66
2024/01/09 02:26:05;;;;;;;;;;;-3.80;99.90;;;;;;4972791;28;19932;-66
2024/01/09 02:28:33;;;;;;;;;;;-3.80;99.90;;;;;;4950074;28;20443;-66
2024/01/09 02:30:59;;;;;;;;;;;-3.80;99.90;;;;;;4963432;28;21063;-66
2024/01/09 02:33:27;;;;;;;;;;;-3.90;99.90;;;;;;4950176;28;19932;-66
2024/01/09 02:35:53;;;;;;;;;;;-3.90;99.90;;;;;;4995342;28;20460;-67
2024/01/09 02:38:20;;;;;;;;;;;-3.80;99.90;;;;;;4980799;28;19928;-66
2024/01/09 02:40:46;;;;;;;;;;;-3.80;99.90;;;;;;5002201;28;20509;-68
2024/01/09 02:43:12;;;;;;;;;;;-3.90;99.90;;;;;;4976290;28;19924;-66
2024/01/09 02:45:38;;;;;;;;;;;-3.90;99.90;;;;;;5005006;28;19935;-67
2024/01/09 02:48:04;;;;;;;;;;;-3.90;99.90;;;;;;4963530;28;19936;-66
2024/01/09 02:50:30;;;;;;;;;;;-4.00;99.90;;;;;;4979556;28;19932;-65
2024/01/09 02:52:56;;;;;;;;;;;-3.90;99.90;;;;;;4968195;28;19924;-67
2024/01/09 02:55:21;;;;;;;;;;;-3.90;99.90;;;;;;4999065;28;19925;-67
2024/01/09 02:57:47;;;;;;;;;;;-3.90;99.90;;;;;;4973558;28;19928;-68
2024/01/09 03:00:13;;;;;;;;;;;-3.90;99.90;;;;;;5008641;28;20959;-67
2024/01/09 03:02:39;;;;;;;;;;;-3.90;99.90;;;;;;4984447;28;21060;-69
2024/01/09 03:05:06;;;;;;;;;;;-4.00;99.90;;;;;;4994035;28;19943;-68
2024/01/09 03:07:33;;;;;;;;;;;-4.00;99.90;;;;;;4975711;28;20528;-69
2024/01/09 03:09:59;;;;;;;;;;;-4.00;99.90;;;;;;5012737;28;19925;-69
2024/01/09 03:12:25;;;;;;;;;;;-4.00;99.90;;;;;;4957297;28;19979;-69
2024/01/09 03:14:51;;;;;;;;;;;-4.00;99.90;;;;;;4998678;28;19925;-69
2024/01/09 03:17:16;;;;;;;;;;;-4.00;99.90;;;;;;4957398;28;19925;-69
2024/01/09 03:19:45;;;;;;;;;;;-4.10;99.90;;;;;;5016123;28;20003;-70
2024/01/09 03:22:11;;;;;;;;;;;-4.10;99.90;;;;;;4979718;28;20625;-68
2024/01/09 03:24:37;;;;;;;;;;;-4.10;99.90;;;;;;5011560;28;19937;-68
2024/01/09 03:27:03;;;;;;;;;;;-4.10;99.90;;;;;;4998333;28;19928;-69
2024/01/09 03:29:29;;;;;;;;;;;-4.10;99.90;;;;;;4968566;28;19929;-69
2024/01/09 03:31:55;;;;;;;;;;;-4.20;99.90;;;;;;5000983;28;19928;-69
2024/01/09 03:34:21;;;;;;;;;;;-4.20;99.90;;;;;;4984574;28;20628;-70
2024/01/09 03:36:47;;;;;;;;;;;-4.10;99.90;;;;;;4985317;28;19931;-70
2024/01/09 03:39:16;;;;;;;;;;;-4.20;99.90;;;;;;4974086;28;20522;-69
2024/01/09 03:41:42;;;;;;;;;;;-4.20;99.90;;;;;;5002634;28;20932;-69
2024/01/09 03:44:12;;;;;;;;;;;-4.20;99.90;;;;;;4986979;28;19924;-69
2024/01/09 03:46:38;;;;;;;;;;;-4.20;99.90;;;;;;5001546;28;20288;-69
2024/01/09 03:49:04;;;;;;;;;;;-4.20;99.90;;;;;;4968147;28;19939;-70
2024/01/09 03:51:30;;;;;;;;;;;-4.30;99.90;;;;;;5001121;28;19925;-69
2024/01/09 03:53:56;;;;;;;;;;;-4.30;99.90;;;;;;4973790;28;20618;-70
2024/01/09 03:56:23;;;;;;;;;;;-4.30;99.90;;;;;;5000317;28;19929;-69
2024/01/09 03:58:49;;;;;;;;;;;-4.30;99.90;;;;;;4973636;28;19947;-68
2024/01/09 04:01:15;;;;;;;;;;;-4.30;99.90;;;;;;4983246;28;20392;-68
2024/01/09 04:03:41;;;;;;;;;;;-4.20;99.90;;;;;;4963120;28;19929;-69
2024/01/09 04:06:07;;;;;;;;;;;-4.30;99.90;;;;;;4982353;28;19925;-68
2024/01/09 04:08:33;;;;;;;;;;;-4.30;99.90;;;;;;4967708;28;20391;-68
2024/01/09 04:10:59;;;;;;;;;;;-4.30;99.90;;;;;;5002632;28;19925;-71
2024/01/09 04:13:25;;;;;;;;;;;-4.30;99.90;;;;;;4979287;28;19924;-68
2024/01/09 04:15:50;;;;;;;;;;;-4.40;99.90;;;;;;5003342;28;19924;-71
2024/01/09 04:18:16;;;;;;;;;;;-4.40;99.90;;;;;;4982694;28;19931;-69
2024/01/09 04:20:42;;;;;;;;;;;-4.40;99.90;;;;;;5005584;28;19929;-70
2024/01/09 04:23:09;;;;;;;;;;;-4.40;99.90;;;;;;4958257;28;19967;-70
2024/01/09 04:25:35;;;;;;;;;;;-4.40;99.90;;;;;;4987066;28;19929;-69
2024/01/09 04:28:00;;;;;;;;;;;-4.40;99.90;;;;;;4978061;28;20661;-70
2024/01/09 04:30:26;;;;;;;;;;;-4.40;99.90;;;;;;5009090;28;20802;-70
2024/01/09 04:32:52;;;;;;;;;;;-4.50;99.90;;;;;;4970835;28;20041;-70
2024/01/09 04:35:18;;;;;;;;;;;-4.50;99.90;;;;;;5000038;28;19936;-70
2024/01/09 04:37:44;;;;;;;;;;;-4.50;99.90;;;;;;4977726;28;20045;-68
2024/01/09 04:40:10;;;;;;;;;;;-4.50;99.90;;;;;;5011723;28;20789;-69
2024/01/09 04:42:36;;;;;;;;;;;-4.60;99.90;;;;;;4974538;28;19925;-69
2024/01/09 04:45:02;;;;;;;;;;;-4.50;99.90;;;;;;4993130;28;19932;-68
2024/01/09 04:47:28;;;;;;;;;;;-4.50;99.90;;;;;;4973249;28;19924;-69
2024/01/09 04:49:54;;;;;;;;;;;-4.50;99.90;;;;;;5011678;28;19936;-68
2024/01/09 04:52:20;;;;;;;;;;;-4.60;99.90;;;;;;4971716;28;19928;-69
2024/01/09 04:54:46;;;;;;;;;;;-4.60;99.90;;;;;;5003681;28;19951;-69
2024/01/09 04:57:12;;;;;;;;;;;-4.60;99.90;;;;;;4993627;28;20482;-68
2024/01/09 04:59:39;;;;;;;;;;;-4.60;99.90;;;;;;5015264;28;19931;-69
2024/01/09 05:02:05;;;;;;;;;;;-4.60;99.90;;;;;;5015372;28;19939;-69
2024/01/09 05:04:31;;;;;;;;;;;-4.60;99.90;;;;;;4967564;28;20414;-69
2024/01/09 05:06:57;;;;;;;;;;;-4.70;99.90;;;;;;4998033;28;19925;-68
2024/01/09 05:09:23;;;;;;;;;;;-4.70;99.90;;;;;;4984853;28;21080;-69
2024/01/09 05:11:49;;;;;;;;;;;-4.70;99.90;;;;;;5000561;28;19925;-69
2024/01/09 05:14:16;;;;;;;;;;;-4.70;99.90;;;;;;4967798;28;19924;-69
2024/01/09 05:16:42;;;;;;;;;;;-4.70;99.90;;;;;;4984655;28;19925;-69
2024/01/09 05:19:07;;;;;;;;;;;-4.70;99.90;;;;;;4969005;28;20747;-69
2024/01/09 05:21:33;;;;;;;;;;;-4.70;99.90;;;;;;4983773;28;20171;-69
2024/01/09 05:23:59;;;;;;;;;;;-4.70;99.90;;;;;;4980722;28;19924;-70
2024/01/09 05:26:25;;;;;;;;;;;-4.80;99.90;;;;;;5000369;28;19924;-69
2024/01/09 05:28:51;;;;;;;;;;;-4.80;99.90;;;;;;4982831;28;19979;-69
2024/01/09 05:31:17;;;;;;;;;;;-4.80;99.90;;;;;;4980948;28;19925;-70
2024/01/09 05:33:43;;;;;;;;;;;-4.80;99.90;;;;;;4980578;28;19931;-70
2024/01/09 05:36:09;;;;;;;;;;;-4.80;99.90;;;;;;4998869;28;19925;-69
2024/01/09 05:38:35;;;;;;;;;;;-4.80;99.90;;;;;;4983219;28;19924;-69
2024/01/09 05:41:01;;;;;;;;;;;-4.80;99.90;;;;;;4982769;28;19939;-69
2024/01/09 05:43:27;;;;;;;;;;;-4.90;99.90;;;;;;4972558;28;20540;-69
2024/01/09 05:45:53;;;;;;;;;;;-4.90;99.90;;;;;;4979893;28;19925;-69
2024/01/09 05:48:19;;;;;;;;;;;-4.90;99.90;;;;;;4976134;28;19932;-69
2024/01/09 05:50:45;;;;;;;;;;;-4.90;99.90;;;;;;5006830;28;19935;-69
2024/01/09 05:53:11;;;;;;;;;;;-4.90;99.90;;;;;;4955550;28;19928;-69
2024/01/09 05:55:36;;;;;;;;;;;-4.90;99.90;;;;;;4993445;28;20296;-68
2024/01/09 05:58:03;;;;;;;;;;;-4.90;99.90;;;;;;4985094;28;20009;-69
2024/01/09 06:00:30;;;;;;;;;;;-4.90;99.90;;;;;;4998735;28;20332;-70
2024/01/09 06:02:56;;;;;;;;;;;-4.90;99.90;;;;;;4966347;28;19924;-68
2024/01/09 06:05:22;;;;;;;;;;;-5.00;99.90;;;;;;5006457;28;19940;-70
2024/01/09 06:07:48;;;;;;;;;;;-5.00;99.90;;;;;;4962723;28;20338;-69
2024/01/09 06:10:14;;;;;;;;;;;-5.00;99.90;;;;;;5009452;28;19928;-69
2024/01/09 06:12:40;;;;;;;;;;;-5.00;99.90;;;;;;4973749;28;20649;-70
2024/01/09 06:15:07;;;;;;;;;;;-5.00;99.90;;;;;;5008665;28;19924;-70
2024/01/09 06:17:33;;;;;;;;;;;-5.00;99.90;;;;;;4990756;28;19924;-69
2024/01/09 06:20:00;;;;;;;;;;;-5.00;99.90;;;;;;5007335;28;20550;-69
2024/01/09 06:22:26;;;;;;;;;;;-5.00;99.90;;;;;;4956616;28;19936;-67
2024/01/09 06:24:52;;;;;;;;;;;-5.00;99.90;;;;;;5011801;28;19925;-69
2024/01/09 06:27:18;;;;;;;;;;;-5.10;99.90;;;;;;4951145;28;19925;-70
2024/01/09 06:29:44;;;;;;;;;;;-5.00;99.90;;;;;;5003019;28;19937;-70
2024/01/09 06:32:10;;;;;;;;;;;-5.10;99.90;;;;;;4974138;28;20079;-71
2024/01/09 06:34:36;;;;;;;;;;;-5.10;99.90;;;;;;4994143;28;19935;-70
2024/01/09 06:37:02;;;;;;;;;;;-5.10;99.90;;;;;;4994364;28;19929;-70
2024/01/09 06:39:28;;;;;;;;;;;-5.10;99.90;;;;;;4929274;28;21168;-69
2024/01/09 06:41:54;;;;;;;;;;;-5.20;99.90;;;;;;5010944;28;19929;-69
2024/01/09 06:44:20;;;;;;;;;;;-5.10;99.90;;;;;;4966554;28;19925;-70
2024/01/09 06:46:46;;;;;;;;;;;-5.20;99.90;;;;;;4992596;28;19932;-70
2024/01/09 06:49:12;;;;;;;;;;;-5.20;99.90;;;;;;4957678;28;20063;-68
2024/01/09 06:51:38;;;;;;;;;;;-5.20;99.90;;;;;;4998518;28;19925;-70
2024/01/09 06:54:04;;;;;;;;;;;-5.20;99.90;;;;;;4985516;28;19928;-71
2024/01/09 06:56:30;;;;;;;;;;;-5.20;99.90;;;;;;4981978;28;19959;-69
2024/01/09 06:58:56;;;;;;;;;;;-5.20;99.90;;;;;;4981420;28;19925;-70
2024/01/09 07:01:22;;;;;;;;;;;-5.20;99.90;;;;;;4980091;28;19936;-68
2024/01/09 07:03:48;;;;;;;;;;;-5.20;99.90;;;;;;4980921;28;19928;-69
2024/01/09 07:06:14;;;;;;;;;;;-5.30;99.90;;;;;;4977880;28;20418;-69
2024/01/09 07:08:40;;;;;;;;;;;-5.20;99.90;;;;;;4949473;28;19935;-69
2024/01/09 07:11:05;;;;;;;;;;;-5.30;99.90;;;;;;4991567;28;19925;-68
2024/01/09 07:13:31;;;;;;;;;;;-5.30;99.90;;;;;;4980901;28;20221;-69
2024/01/09 07:15:57;;;;;;;;;;;-5.30;99.90;;;;;;4971300;28;20740;-68
2024/01/09 07:18:24;;;;;;;;;;;-5.30;99.90;;;;;;4974902;28;20040;-68
2024/01/09 07:20:50;;;;;;;;;;;-5.30;99.90;;;;;;4989057;28;19951;-69
2024/01/09 07:23:16;;;;;;;;;;;-5.30;99.90;;;;;;4955338;28;20622;-69
2024/01/09 07:25:42;;;;;;;;;;;-5.30;99.90;;;;;;4994426;28;19936;-69
2024/01/09 07:28:08;;;;;;;;;;;-5.30;99.90;;;;;;4973830;28;19925;-69
2024/01/09 07:30:33;;;;;;;;;;;-5.30;99.90;;;;;;5002771;28;19929;-68
2024/01/09 07:32:59;;;;;;;;;;;-5.30;99.90;;;;;;4969031;28;19925;-69
2024/01/09 07:35:25;;;;;;;;;;;-5.30;99.90;;;;;;4998926;28;19932;-69
2024/01/09 07:37:51;;;;;;;;;;;-5.30;99.90;;;;;;4966551;28;19936;-69
2024/01/09 07:40:17;;;;;;;;;;;-5.20;99.90;;;;;;4998058;28;20471;-69
2024/01/09 07:42:43;;;;;;;;;;;-5.30;99.90;;;;;;4961353;28;19925;-68
2024/01/09 07:45:11;;;;;;;;;;;-5.30;99.90;;;;;;4992352;28;20449;-69
2024/01/09 07:47:38;;;;;;;;;;;-5.30;99.90;;;;;;4979554;28;19924;-69
2024/01/09 07:50:04;;;;;;;;;;;-5.30;99.90;;;;;;4994953;28;19936;-70
2024/01/09 07:52:30;;;;;;;;;;;-5.30;99.90;;;;;;4946307;28;19977;-70
2024/01/09 07:54:56;;;;;;;;;;;-5.20;99.90;;;;;;5009983;28;20957;-70
2024/01/09 07:57:22;;;;;;;;;;;-5.30;99.90;;;;;;4975924;28;19931;-68
2024/01/09 07:59:48;;;;;;;;;;;-5.30;99.90;;;;;;5013236;28;20546;-68
2024/01/09 08:02:14;;;;;;;;;;;-5.30;99.90;;;;;;4973660;28;19929;-68
2024/01/09 08:04:40;;;;;;;;;;;-5.30;99.90;;;;;;5008831;28;19925;-68
2024/01/09 08:07:06;;;;;;;;;;;-5.30;99.90;;;;;;4977927;28;19925;-68
2024/01/09 08:09:32;;;;;;;;;;;-5.30;99.90;;;;;;4970623;28;19939;-68
2024/01/09 08:11:57;;;;;;;;;;;-5.20;99.90;;;;;;4990701;28;19931;-69
2024/01/09 08:14:23;;;;;;;;;;;-5.20;99.90;;;;;;4988705;28;19924;-69
2024/01/09 08:16:49;;;;;;;;;;;-5.20;99.90;;;;;;4984678;28;20949;-70
2024/01/09 08:19:16;;;;;;;;;;;-5.20;99.90;;;;;;4985666;28;19962;-68
2024/01/09 08:21:42;;;;;;;;;;;-5.30;99.90;;;;;;4983520;28;20523;-69
2024/01/09 08:24:08;;;;;;;;;;;-5.20;99.90;;;;;;4986508;28;20847;-69
2024/01/09 08:26:34;;;;;;;;;;;-5.20;99.90;;;;;;4980107;28;20430;-68
2024/01/09 08:29:02;;;;;;;;;;;-5.20;99.90;;;;;;4953017;28;20543;-69
2024/01/09 08:31:28;;;;;;;;;;;-5.20;99.90;;;;;;4999561;28;19929;-69
2024/01/09 08:33:54;;;;;;;;;;;-5.20;99.90;;;;;;4983052;28;19959;-69
2024/01/09 08:36:20;;;;;;;;;;;-5.10;99.90;;;;;;5003088;28;19929;-69
2024/01/09 08:38:46;;;;;;;;;;;-5.10;99.90;;;;;;4986127;28;19951;-67
2024/01/09 08:41:12;;;;;;;;;;;-5.00;99.90;;;;;;5003419;28;19935;-74
2024/01/09 08:43:39;;;;;;;;;;;-5.00;99.90;;;;;;4976184;28;19924;-69
2024/01/09 08:46:05;;;;;;;;;;;-5.00;99.90;;;;;;4982131;28;19928;-69
2024/01/09 08:48:30;;;;;;;;;;;-5.00;99.90;;;;;;4982024;28;19932;-68
2024/01/09 08:50:57;;;;;;;;;;;-5.00;99.90;;;;;;5005841;28;20673;-70
2024/01/09 08:53:28;;;;;;;;;;;-4.90;99.90;;;;;;4969085;28;19925;-69
2024/01/09 08:55:54;;;;;;;;;;;-4.90;99.90;;;;;;4982946;28;20522;-69
2024/01/09 08:58:19;;;;;;;;;;;-4.90;99.90;;;;;;4953467;28;20026;-69
2024/01/09 09:00:45;;;;;;;;;;;-4.80;99.90;;;;;;4989148;28;19929;-69
2024/01/09 09:03:11;;;;;;;;;;;-4.80;99.90;;;;;;4980137;28;19932;-69
2024/01/09 09:05:37;;;;;;;;;;;-4.70;99.90;;;;;;5009058;28;19924;-70
2024/01/09 09:08:04;;;;;;;;;;;-4.70;99.90;;;;;;4955474;28;19924;-69
2024/01/09 09:10:30;;;;;;;;;;;-4.70;99.90;;;;;;5000092;28;20483;-70
2024/01/09 09:12:56;;;;;;;;;;;-4.70;99.90;;;;;;4974166;28;19928;-69
2024/01/09 09:15:22;;;;;;;;;;;-4.60;99.90;;;;;;4992189;28;19980;-70
2024/01/09 09:17:48;;;;;;;;;;;-4.60;99.90;;;;;;4975757;28;19932;-70
2024/01/09 09:20:14;;;;;;;;;;;-4.50;99.90;;;;;;5007595;28;19960;-69
2024/01/09 09:22:40;;;;;;;;;;;-4.50;99.90;;;;;;4970250;28;19924;-69
2024/01/09 09:25:06;;;;;;;;;;;-4.50;99.90;;;;;;5010318;28;19936;-68
2024/01/09 09:27:32;;;;;;;;;;;-4.50;99.90;;;;;;4983460;28;19931;-69
2024/01/09 09:29:58;;;;;;;;;;;-4.40;99.90;;;;;;4980651;28;19933;-70
2024/01/09 09:32:24;;;;;;;;;;;-4.40;99.90;;;;;;4988916;28;19929;-68
2024/01/09 09:34:50;;;;;;;;;;;-4.40;99.90;;;;;;4995341;28;19925;-68
2024/01/09 09:37:15;;;;;;;;;;;-4.30;99.90;;;;;;4970170;28;19929;-69
2024/01/09 09:39:41;;;;;;;;;;;-4.30;99.90;;;;;;5011540;28;19931;-69
2024/01/09 09:42:08;;;;;;;;;;;-4.30;99.90;;;;;;4992131;28;19924;-68
2024/01/09 09:44:36;;;;;;;;;;;-4.20;99.90;;;;;;4992886;28;19952;-69
2024/01/09 09:47:02;;;;;;;;;;;-4.20;99.90;;;;;;4997538;28;19932;-69
2024/01/09 09:49:28;;;;;;;;;;;-4.10;99.90;;;;;;4971611;28;20351;-70
2024/01/09 09:51:54;;;;;;;;;;;-4.10;99.90;;;;;;5002447;28;19935;-69
2024/01/09 09:54:23;;;;;;;;;;;-4.10;99.90;;;;;;4987273;28;19931;-69
2024/01/09 09:56:48;;;;;;;;;;;-4.00;99.90;;;;;;4967193;28;19932;-70
2024/01/09 09:59:15;;;;;;;;;;;-4.00;99.90;;;;;;4984128;28;20339;-71
2024/01/09 10:01:42;;;;;;;;;;;-3.90;99.90;;;;;;4999214;28;19956;-68
2024/01/09 10:04:27;;;;;;;;;;;-3.90;99.90;;;;;;4953522;28;20005;-70
2024/01/09 10:06:58;;;;;;;;;;;-3.90;99.90;;;;;;4996104;28;19936;-69
2024/01/09 10:09:28;;;;;;;;;;;-3.80;99.90;;;;;;4969126;28;19936;-70
2024/01/09 10:11:54;;;;;;;;;;;-3.80;99.90;;;;;;4997750;28;20184;-69
2024/01/09 10:14:20;;;;;;;;;;;-3.70;99.90;;;;;;4952146;28;20004;-70
2024/01/09 10:16:53;;;;;;;;;;;-3.70;99.90;;;;;;5016623;28;20148;-69
2024/01/09 10:19:21;;;;;;;;;;;-3.60;99.90;;;;;;4956108;28;20296;-70
2024/01/09 10:21:47;;;;;;;;;;;-3.60;99.90;;;;;;4981606;28;19925;-69
2024/01/09 10:24:14;;;;;;;;;;;-3.60;99.90;;;;;;4971490;28;19929;-70
2024/01/09 10:26:40;;;;;;;;;;;-3.50;99.90;;;;;;4977539;28;19928;-71
2024/01/09 10:29:08;;;;;;;;;;;-3.50;99.90;;;;;;4953957;28;19924;-71
2024/01/09 10:31:34;;;;;;;;;;;-3.50;99.90;;;;;;4980751;28;19932;-71
2024/01/09 10:34:00;;;;;;;;;;;-3.40;99.90;;;;;;4963196;28;21421;-71
2024/01/09 10:36:27;;;;;;;;;;;-3.40;99.90;;;;;;5000497;28;20618;-71
2024/01/09 10:39:04;;;;;;;;;;;-3.30;99.90;;;;;;4954711;28;19924;-71
2024/01/09 10:41:30;;;;;;;;;;;-3.20;99.90;;;;;;4978637;28;20023;-70
2024/01/09 10:43:56;;;;;;;;;;;-3.20;99.90;;;;;;4935701;28;19929;-71
2024/01/09 10:46:23;;;;;;;;;;;-3.20;99.90;;;;;;4992714;28;20022;-71
2024/01/09 10:48:50;;;;;;;;;;;-3.20;99.90;;;;;;4947722;28;19998;-71
2024/01/09 10:51:16;;;;;;;;;;;-3.10;99.90;;;;;;4979904;28;20139;-71
2024/01/09 10:53:44;;;;;;;;;;;-3.10;99.90;;;;;;4973064;28;19928;-71
2024/01/09 10:56:10;;;;;;;;;;;-3.00;99.90;;;;;;4957145;28;19935;-71
2024/01/09 10:58:36;;;;;;;;;;;-3.00;99.90;;;;;;4935972;28;19936;-70
2024/01/09 11:01:03;;;;;;;;;;;-3.00;99.90;;;;;;4997666;28;19924;-71
2024/01/09 11:03:29;;;;;;;;;;;-2.90;99.90;;;;;;4958404;28;19992;-72
2024/01/09 11:05:58;;;;;;;;;;;-2.90;99.90;;;;;;4967866;28;19928;-73
2024/01/09 11:08:25;;;;;;;;;;;-2.90;99.90;;;;;;4972559;28;19929;-72
2024/01/09 11:10:52;;;;;;;;;;;-2.80;99.90;;;;;;5006196;28;19935;-72
2024/01/09 11:13:18;;;;;;;;;;;-2.80;99.90;;;;;;4972666;28;19924;-72
2024/01/09 11:15:46;;;;;;;;;;;-2.80;99.90;;;;;;5004431;28;19925;-73
2024/01/09 11:18:14;;;;;;;;;;;-2.70;99.90;;;;;;4957800;28;19925;-73
2024/01/09 11:20:40;;;;;;;;;;;-2.70;99.90;;;;;;4985520;28;19936;-74
2024/01/09 11:23:06;;;;;;;;;;;-2.70;99.90;;;;;;4969330;28;19936;-72
2024/01/09 11:25:33;;;;;;;;;;;-2.60;99.90;;;;;;4978592;28;20448;-72
2024/01/09 11:28:00;;;;;;;;;;;-2.60;99.90;;;;;;4986139;28;19925;-73
2024/01/09 11:30:29;;;;;;;;;;;-2.50;99.90;;;;;;4979290;28;20425;-73
2024/01/09 11:33:18;;;;;;;;;;;-2.50;99.90;;;;;;4954777;28;19996;-73
2024/01/09 11:35:44;;;;;;;;;;;-2.50;99.90;;;;;;4985744;28;20411;-73
2024/01/09 11:38:10;;;;;;;;;;;-2.40;99.90;;;;;;4963313;28;19925;-72
2024/01/09 11:40:36;;;;;;;;;;;-2.40;99.90;;;;;;4992561;28;19929;-73
2024/01/09 11:43:02;;;;;;;;;;;-2.30;99.90;;;;;;4984494;28;19931;-73
2024/01/09 11:45:28;;;;;;;;;;;-2.30;99.90;;;;;;4984483;28;20482;-73
2024/01/09 11:47:54;;;;;;;;;;;-2.30;99.90;;;;;;4955646;28;20180;-73
2024/01/09 11:50:20;;;;;;;;;;;-2.30;99.90;;;;;;4985254;28;19939;-73
2024/01/09 11:52:47;;;;;;;;;;;-2.20;99.90;;;;;;4976154;28;19993;-70
2024/01/09 11:55:13;;;;;;;;;;;-2.20;99.90;;;;;;4995553;28;19931;-72
2024/01/09 11:57:40;;;;;;;;;;;-2.10;99.90;;;;;;4973635;28;19924;-72
2024/01/09 12:00:07;;;;;;;;;;;-2.10;99.90;;;;;;5015181;28;20592;-72
2024/01/09 12:02:34;;;;;;;;;;;-2.00;99.90;;;;;;4978527;28;19924;-73
2024/01/09 12:05:00;;;;;;;;;;;-2.00;99.90;;;;;;5011161;28;19936;-74
2024/01/09 12:07:27;;;;;;;;;;;-2.00;99.90;;;;;;4963272;28;19934;-74
2024/01/09 12:09:53;;;;;;;;;;;-1.90;99.90;;;;;;4997713;28;19933;-73
2024/01/09 12:12:23;;;;;;;;;;;-1.90;99.90;;;;;;4979797;28;19931;-74
2024/01/09 12:14:52;;;;;;;;;;;-1.90;99.90;;;;;;4984575;28;20527;-74
2024/01/09 12:17:23;;;;;;;;;;;-1.80;99.90;;;;;;4976687;28;19936;-74
2024/01/09 12:19:52;;;;;;;;;;;-1.70;99.90;;;;;;4996539;28;19928;-73
2024/01/09 12:22:19;;;;;;;;;;;-1.70;99.90;;;;;;4957120;28;19996;-74
2024/01/09 12:24:46;;;;;;;;;;;-1.10;99.90;;;;;;5013033;28;20893;-74
2024/01/09 12:27:12;;;;;;;;;;;1.00;99.90;;;;;;4998604;28;19940;-74
2024/01/09 12:29:40;;;;;;;;;;;2.30;98.40;;;;;;5009296;28;20033;-75
2024/01/09 12:32:06;;;;;;;;;;;3.30;96.50;;;;;;5001465;28;19924;-75
2024/01/09 12:34:32;;;;;;;;;;;4.00;95.80;;;;;;4964887;28;21126;-75
2024/01/09 12:37:00;;;;;;;;;;;4.40;95.30;;;;;;4984635;28;19925;-75
2024/01/09 12:39:26;;;;;;;;;;;4.30;94.00;;;;;;4955515;28;19929;-75
2024/01/09 12:42:03;;;;;;;;;;;5.00;95.10;;;;;;5005866;28;20576;-74
2024/01/09 12:44:29;;;;;;;;;;;5.30;93.00;;;;;;4985543;28;19925;-75
2024/01/09 12:46:55;;;;;;;;;;;5.50;93.30;;;;;;5002973;28;19929;-76
2024/01/09 12:49:21;;;;;;;;;;;6.00;93.20;;;;;;4982915;28;20609;-74
2024/01/09 12:51:47;;;;;;;;;;;6.40;93.40;;;;;;5018475;28;20405;-73
2024/01/09 12:54:16;;;;;;;;;;;7.20;93.00;;;;;;4983254;28;20105;-74
2024/01/09 12:56:43;;;;;;;;;;;7.40;92.70;;;;;;5019124;28;20426;-75
2024/01/09 12:59:10;;;;;;;;;;;7.70;92.70;;;;;;4972332;28;19925;-73
2024/01/09 13:01:36;;;;;;;;;;;7.90;91.50;;;;;;5019112;28;19925;-73
2024/01/09 13:04:02;;;;;;;;;;;8.60;93.10;;;;;;4972429;28;19929;-73
2024/01/09 13:06:28;;;;;;;;;;;8.70;91.30;;;;;;5010938;28;19931;-74
2024/01/09 13:08:54;;;;;;;;;;;8.60;91.00;;;;;;4972224;28;19933;-74
2024/01/09 13:11:19;;;;;;;;;;;8.80;90.90;;;;;;5015192;28;19932;-75
2024/01/09 13:13:45;;;;;;;;;;;9.10;89.80;;;;;;4965265;28;19972;-75
2024/01/09 13:16:12;;;;;;;;;;;9.20;90.20;;;;;;5014698;28;19931;-75
2024/01/09 13:18:38;;;;;;;;;;;8.90;90.30;;;;;;4939765;28;19933;-75
2024/01/09 13:21:03;;;;;;;;;;;9.00;89.70;;;;;;5001755;28;20422;-74
2024/01/09 13:23:30;;;;;;;;;;;8.80;90.10;;;;;;4952802;28;19925;-75
2024/01/09 13:25:58;;;;;;;;;;;8.50;87.70;;;;;;4996623;28;19955;-75
2024/01/09 13:28:25;;;;;;;;;;;8.30;88.40;;;;;;4969221;28;20261;-76
2024/01/09 13:30:50;;;;;;;;;;;8.40;88.90;;;;;;4976162;28;19951;-75
2024/01/09 13:33:16;;;;;;;;;;;8.20;88.70;;;;;;4977685;28;20494;-74
2024/01/09 13:35:43;;;;;;;;;;;8.20;86.50;;;;;;4989480;28;19925;-74
2024/01/09 13:38:09;;;;;;;;;;;7.70;87.00;;;;;;4957054;28;19944;-75
2024/01/09 13:40:35;;;;;;;;;;;7.90;88.40;;;;;;5000927;28;19931;-74
2024/01/09 13:43:03;;;;;;;;;;;7.90;88.50;;;;;;4987146;28;20043;-75
2024/01/09 13:45:29;;;;;;;;;;;8.10;88.00;;;;;;4985602;28;19925;-75
2024/01/09 13:47:55;;;;;;;;;;;8.60;87.40;;;;;;4966374;28;19925;-75
2024/01/09 13:50:23;;;;;;;;;;;8.90;86.80;;;;;;5011887;28;19929;-74
2024/01/09 13:52:49;;;;;;;;;;;8.90;87.70;;;;;;4952793;28;19931;-76
2024/01/09 13:55:16;;;;;;;;;;;9.20;87.70;;;;;;4981824;28;19924;-76
2024/01/09 13:57:42;;;;;;;;;;;9.00;86.00;;;;;;4957053;28;20519;-76
2024/01/09 14:00:09;;;;;;;;;;;9.60;88.20;;;;;;5012718;28;19931;-75
2024/01/09 14:02:37;;;;;;;;;;;9.80;87.50;;;;;;4967915;28;20001;-76
2024/01/09 14:05:04;;;;;;;;;;;9.60;86.90;;;;;;4978380;28;19924;-76
2024/01/09 14:07:30;;;;;;;;;;;8.80;86.80;;;;;;4976369;28;19926;-76
2024/01/09 14:09:57;;;;;;;;;;;8.20;85.60;;;;;;5030431;28;19939;-76
2024/01/09 14:12:23;;;;;;;;;;;8.30;86.80;;;;;;4982875;28;19920;-76
2024/01/09 14:14:49;;;;;;;;;;;8.50;86.30;;;;;;5032682;28;20651;-76